createdAt,value
2017-11-24T00:00:03.976Z,0.00
2017-11-24T00:01:03.958Z,0.00
2017-11-24T00:02:03.938Z,0.00
2017-11-24T00:03:03.917Z,0.00
2017-11-24T00:04:03.896Z,0.00
2017-11-24T00:05:03.878Z,0.00
2017-11-24T00:06:03.856Z,0.00
2017-11-24T00:07:03.836Z,0.00
2017-11-24T00:08:03.817Z,0.00
2017-11-24T00:09:03.797Z,0.00
2017-11-24T00:10:03.792Z,0.00
2017-11-24T00:11:03.791Z,0.00
2017-11-24T00:12:03.759Z,0.00
2017-11-24T00:13:03.764Z,0.00
2017-11-24T00:14:03.701Z,0.00
2017-11-24T00:15:03.678Z,0.00
2017-11-24T00:16:03.657Z,0.00
2017-11-24T00:17:03.638Z,0.00
2017-11-24T00:18:03.630Z,0.00
2017-11-24T00:19:03.597Z,0.00
2017-11-24T00:20:03.581Z,0.00
2017-11-24T00:21:03.556Z,0.00
2017-11-24T00:22:03.540Z,0.00
2017-11-24T00:23:03.528Z,0.00
2017-11-24T00:24:03.500Z,0.00
2017-11-24T00:25:03.479Z,0.00
2017-11-24T00:26:03.458Z,0.00
2017-11-24T00:27:03.447Z,0.00
2017-11-24T00:28:03.423Z,0.00
2017-11-24T00:29:03.397Z,0.00
2017-11-24T00:30:03.391Z,0.00
2017-11-24T00:31:03.357Z,0.00
2017-11-24T00:32:03.337Z,0.00
2017-11-24T00:33:03.320Z,0.00
2017-11-24T00:34:03.302Z,0.00
2017-11-24T00:35:03.275Z,0.00
2017-11-24T00:36:03.253Z,0.00
2017-11-24T00:37:03.236Z,0.00
2017-11-24T00:38:03.218Z,0.00
2017-11-24T00:39:03.194Z,0.00
2017-11-24T00:40:03.176Z,0.00
2017-11-24T00:41:03.159Z,0.00
2017-11-24T00:42:03.142Z,0.00
2017-11-24T00:43:03.126Z,0.00
2017-11-24T00:44:03.110Z,0.00
2017-11-24T00:45:03.084Z,0.00
2017-11-24T00:46:03.054Z,0.00
2017-11-24T00:47:03.058Z,0.00
2017-11-24T00:48:03.025Z,0.00
2017-11-24T00:49:02.993Z,0.00
2017-11-24T00:50:02.974Z,0.00
2017-11-24T00:51:02.954Z,0.00
2017-11-24T00:52:02.933Z,0.00
2017-11-24T00:53:02.912Z,0.00
2017-11-24T00:54:02.897Z,0.00
2017-11-24T00:55:02.878Z,0.00
2017-11-24T00:56:02.853Z,0.00
2017-11-24T00:57:02.867Z,0.00
2017-11-24T00:58:02.867Z,0.00
2017-11-24T00:59:02.796Z,0.00
2017-11-24T01:00:02.772Z,0.00
2017-11-24T01:01:02.754Z,0.00
2017-11-24T01:02:02.733Z,0.00
2017-11-24T01:03:02.723Z,0.00
2017-11-24T01:04:02.691Z,0.00
2017-11-24T01:05:02.675Z,0.00
2017-11-24T01:06:02.653Z,0.00
2017-11-24T01:07:02.636Z,0.00
2017-11-24T01:08:02.618Z,0.00
2017-11-24T01:09:02.595Z,0.00
2017-11-24T01:10:02.581Z,0.00
2017-11-24T01:11:02.550Z,0.00
2017-11-24T01:12:02.538Z,0.00
2017-11-24T01:13:02.512Z,0.00
2017-11-24T01:14:02.490Z,0.00
2017-11-24T01:15:02.473Z,0.00
2017-11-24T01:16:02.450Z,0.00
2017-11-24T01:17:02.428Z,0.00
2017-11-24T01:18:02.411Z,0.00
2017-11-24T01:19:02.389Z,0.00
2017-11-24T01:20:02.369Z,0.00
2017-11-24T01:21:02.351Z,0.00
2017-11-24T01:22:02.333Z,0.00
2017-11-24T01:23:02.311Z,0.00
2017-11-24T01:24:02.293Z,0.00
2017-11-24T01:25:02.271Z,0.00
2017-11-24T01:26:02.249Z,0.00
2017-11-24T01:27:02.226Z,0.00
2017-11-24T01:28:02.205Z,0.00
2017-11-24T01:29:02.191Z,0.00
2017-11-24T01:30:02.167Z,0.00
2017-11-24T01:31:02.150Z,0.00
2017-11-24T01:32:02.125Z,0.00
2017-11-24T01:33:02.110Z,0.00
2017-11-24T01:34:02.091Z,0.00
2017-11-24T01:35:02.072Z,0.00
2017-11-24T01:36:02.046Z,0.00
2017-11-24T01:37:02.024Z,0.00
2017-11-24T01:38:02.013Z,0.00
2017-11-24T01:39:01.992Z,0.00
2017-11-24T01:40:01.968Z,0.00
2017-11-24T01:41:01.944Z,0.00
2017-11-24T01:42:01.960Z,0.00
2017-11-24T01:43:01.900Z,0.00
2017-11-24T01:44:01.881Z,0.00
2017-11-24T01:45:01.864Z,0.00
2017-11-24T01:46:01.849Z,0.00
2017-11-24T01:47:01.836Z,0.00
2017-11-24T01:48:01.805Z,0.00
2017-11-24T01:49:01.778Z,0.00
2017-11-24T01:50:01.763Z,0.00
2017-11-24T01:51:01.740Z,0.00
2017-11-24T01:52:01.720Z,0.00
2017-11-24T01:53:01.701Z,0.00
2017-11-24T01:54:01.679Z,0.00
2017-11-24T01:55:01.664Z,0.00
2017-11-24T01:56:01.639Z,0.00
2017-11-24T01:57:01.620Z,0.00
2017-11-24T01:58:01.606Z,0.00
2017-11-24T01:59:01.581Z,0.00
2017-11-24T02:00:01.565Z,0.00
2017-11-24T02:01:01.541Z,0.00
2017-11-24T02:02:01.536Z,0.00
2017-11-24T02:03:01.499Z,0.00
2017-11-24T02:04:01.481Z,0.00
2017-11-24T02:05:01.464Z,0.00
2017-11-24T02:06:01.439Z,0.00
2017-11-24T02:07:01.417Z,0.00
2017-11-24T02:08:01.398Z,0.00
2017-11-24T02:09:01.372Z,0.00
2017-11-24T02:10:01.353Z,0.00
2017-11-24T02:11:01.334Z,0.00
2017-11-24T02:12:01.316Z,0.00
2017-11-24T02:13:01.298Z,0.00
2017-11-24T02:14:01.272Z,0.00
2017-11-24T02:15:01.251Z,0.00
2017-11-24T02:16:01.244Z,0.00
2017-11-24T02:17:01.217Z,0.00
2017-11-24T02:18:01.192Z,0.00
2017-11-24T02:19:01.170Z,0.00
2017-11-24T02:20:01.150Z,0.00
2017-11-24T02:21:01.134Z,0.00
2017-11-24T02:22:01.111Z,0.00
2017-11-24T02:23:01.091Z,0.00
2017-11-24T02:24:01.112Z,0.00
2017-11-24T02:25:01.055Z,0.00
2017-11-24T02:26:01.076Z,0.00
2017-11-24T02:27:01.012Z,0.00
2017-11-24T02:28:00.987Z,0.00
2017-11-24T02:29:00.968Z,0.00
2017-11-24T02:30:00.952Z,0.00
2017-11-24T02:31:00.926Z,0.00
2017-11-24T02:32:00.909Z,0.00
2017-11-24T02:33:00.887Z,0.00
2017-11-24T02:34:00.868Z,0.00
2017-11-24T02:35:00.844Z,0.00
2017-11-24T02:36:00.833Z,0.00
2017-11-24T02:37:00.802Z,0.00
2017-11-24T02:38:00.785Z,0.00
2017-11-24T02:39:00.764Z,0.00
2017-11-24T02:40:00.743Z,0.00
2017-11-24T02:41:00.723Z,0.00
2017-11-24T02:42:00.721Z,0.00
2017-11-24T02:43:00.684Z,0.00
2017-11-24T02:44:00.660Z,0.00
2017-11-24T02:45:00.659Z,0.00
2017-11-24T02:46:00.619Z,0.00
2017-11-24T02:47:00.613Z,0.00
2017-11-24T02:48:00.577Z,0.00
2017-11-24T02:49:00.558Z,0.00
2017-11-24T02:50:00.535Z,0.00
2017-11-24T02:51:00.525Z,0.00
2017-11-24T02:52:00.493Z,0.00
2017-11-24T02:53:00.480Z,0.00
2017-11-24T02:54:00.455Z,0.00
2017-11-24T02:55:00.437Z,0.00
2017-11-24T02:56:00.413Z,0.00
2017-11-24T02:57:00.393Z,0.00
2017-11-24T02:58:00.378Z,0.00
2017-11-24T02:59:00.366Z,0.00
2017-11-24T03:00:00.333Z,0.00
2017-11-24T03:01:00.310Z,0.00
2017-11-24T03:02:00.291Z,0.00
2017-11-24T03:03:00.276Z,0.00
2017-11-24T03:04:00.250Z,0.00
2017-11-24T03:05:00.231Z,0.00
2017-11-24T03:06:00.206Z,0.00
2017-11-24T03:07:00.194Z,0.00
2017-11-24T03:08:00.167Z,0.00
2017-11-24T03:09:00.150Z,0.00
2017-11-24T03:10:00.169Z,0.00
2017-11-24T03:11:00.120Z,0.00
2017-11-24T03:12:00.087Z,0.00
2017-11-24T03:13:00.064Z,0.00
2017-11-24T03:14:00.044Z,0.00
2017-11-24T03:15:00.024Z,0.00
2017-11-24T03:16:00.004Z,0.00
2017-11-24T03:16:59.984Z,0.00
2017-11-24T03:17:59.967Z,0.00
2017-11-24T03:18:59.940Z,0.00
2017-11-24T03:19:59.923Z,0.00
2017-11-24T03:20:59.895Z,0.00
2017-11-24T03:21:59.881Z,0.00
2017-11-24T03:22:59.861Z,0.00
2017-11-24T03:23:59.844Z,0.00
2017-11-24T03:24:59.815Z,0.00
2017-11-24T03:25:59.797Z,0.00
2017-11-24T03:26:59.776Z,0.00
2017-11-24T03:27:59.757Z,0.00
2017-11-24T03:28:59.736Z,0.00
2017-11-24T03:29:59.713Z,0.00
2017-11-24T03:30:59.694Z,0.00
2017-11-24T03:31:59.671Z,0.00
2017-11-24T03:32:59.647Z,0.00
2017-11-24T03:33:59.629Z,0.00
2017-11-24T03:34:59.613Z,0.00
2017-11-24T03:35:59.593Z,0.00
2017-11-24T03:36:59.570Z,0.00
2017-11-24T03:37:59.545Z,0.00
2017-11-24T03:38:59.528Z,0.00
2017-11-24T03:40:02.133Z,0.00
2017-11-24T03:40:59.484Z,0.00
2017-11-24T03:41:59.469Z,0.00
2017-11-24T03:42:59.441Z,0.00
2017-11-24T03:43:59.421Z,0.00
2017-11-24T03:44:59.406Z,0.00
2017-11-24T03:45:59.381Z,0.00
2017-11-24T03:46:59.369Z,0.00
2017-11-24T03:47:59.341Z,0.00
2017-11-24T03:48:59.322Z,0.00
2017-11-24T03:49:59.296Z,0.00
2017-11-24T03:50:59.286Z,0.00
2017-11-24T03:51:59.258Z,0.00
2017-11-24T03:52:59.264Z,0.00
2017-11-24T03:53:59.269Z,0.00
2017-11-24T03:54:59.199Z,0.00
2017-11-24T03:55:59.178Z,0.00
2017-11-24T03:56:59.155Z,0.00
2017-11-24T03:57:59.132Z,0.00
2017-11-24T03:58:59.113Z,0.00
2017-11-24T03:59:59.095Z,0.00
2017-11-24T04:00:59.081Z,0.00
2017-11-24T04:01:59.055Z,0.00
2017-11-24T04:02:59.025Z,0.00
2017-11-24T04:03:59.015Z,0.00
2017-11-24T04:04:58.987Z,0.00
2017-11-24T04:05:58.972Z,0.00
2017-11-24T04:06:58.947Z,0.00
2017-11-24T04:07:58.925Z,0.00
2017-11-24T04:08:58.906Z,0.00
2017-11-24T04:09:58.884Z,0.00
2017-11-24T04:10:58.874Z,0.00
2017-11-24T04:11:58.847Z,0.00
2017-11-24T04:12:58.827Z,0.00
2017-11-24T04:13:58.811Z,0.00
2017-11-24T04:14:58.788Z,0.00
2017-11-24T04:15:58.761Z,0.00
2017-11-24T04:16:58.742Z,0.00
2017-11-24T04:17:58.722Z,0.00
2017-11-24T04:18:58.704Z,0.00
2017-11-24T04:19:58.677Z,0.00
2017-11-24T04:20:58.659Z,0.00
2017-11-24T04:21:58.639Z,0.00
2017-11-24T04:22:58.618Z,0.00
2017-11-24T04:23:58.607Z,0.00
2017-11-24T04:24:58.577Z,0.00
2017-11-24T04:25:58.560Z,0.00
2017-11-24T04:26:58.535Z,0.00
2017-11-24T04:27:58.517Z,0.00
2017-11-24T04:28:58.492Z,0.00
2017-11-24T04:29:58.473Z,0.00
2017-11-24T04:30:58.452Z,0.00
2017-11-24T04:31:58.433Z,0.00
2017-11-24T04:32:58.414Z,0.00
2017-11-24T04:33:58.389Z,0.00
2017-11-24T04:34:58.376Z,0.00
2017-11-24T04:35:58.382Z,0.00
2017-11-24T04:36:58.377Z,0.00
2017-11-24T04:37:58.304Z,0.00
2017-11-24T04:38:58.284Z,0.00
2017-11-24T04:39:58.266Z,0.00
2017-11-24T04:40:58.241Z,0.00
2017-11-24T04:41:58.223Z,0.00
2017-11-24T04:42:58.215Z,0.00
2017-11-24T04:43:58.180Z,0.00
2017-11-24T04:44:58.159Z,0.00
2017-11-24T04:45:58.146Z,0.00
2017-11-24T04:46:58.119Z,0.00
2017-11-24T04:47:58.104Z,0.00
2017-11-24T04:48:58.076Z,0.00
2017-11-24T04:49:58.056Z,0.00
2017-11-24T04:50:58.036Z,0.00
2017-11-24T04:51:58.016Z,0.00
2017-11-24T04:52:57.995Z,0.00
2017-11-24T04:53:57.979Z,0.00
2017-11-24T04:54:57.954Z,0.00
2017-11-24T04:55:57.931Z,0.00
2017-11-24T04:56:57.916Z,0.00
2017-11-24T04:57:57.893Z,0.00
2017-11-24T04:58:57.880Z,0.00
2017-11-24T04:59:57.851Z,0.00
2017-11-24T05:00:57.829Z,0.00
2017-11-24T05:01:57.808Z,0.00
2017-11-24T05:02:57.785Z,0.00
2017-11-24T05:03:57.766Z,0.00
2017-11-24T05:04:57.747Z,0.00
2017-11-24T05:05:57.729Z,0.00
2017-11-24T05:06:57.703Z,0.00
2017-11-24T05:07:57.689Z,0.00
2017-11-24T05:08:57.661Z,0.00
2017-11-24T05:09:57.646Z,0.00
2017-11-24T05:10:57.620Z,0.00
2017-11-24T05:11:57.598Z,0.00
2017-11-24T05:12:57.577Z,0.00
2017-11-24T05:13:57.560Z,0.00
2017-11-24T05:14:57.542Z,0.00
2017-11-24T05:15:57.520Z,0.00
2017-11-24T05:16:57.497Z,0.00
2017-11-24T05:17:57.473Z,0.00
2017-11-24T05:18:57.453Z,0.00
2017-11-24T05:19:57.433Z,0.00
2017-11-24T05:20:57.451Z,0.00
2017-11-24T05:21:57.391Z,0.00
2017-11-24T05:22:57.369Z,0.00
2017-11-24T05:23:57.351Z,0.00
2017-11-24T05:24:57.337Z,0.00
2017-11-24T05:25:57.317Z,0.00
2017-11-24T05:26:57.292Z,0.00
2017-11-24T05:27:57.272Z,0.00
2017-11-24T05:28:57.244Z,0.00
2017-11-24T05:29:57.223Z,0.00
2017-11-24T05:30:57.203Z,0.00
2017-11-24T05:31:57.185Z,0.00
2017-11-24T05:32:57.161Z,0.00
2017-11-24T05:33:57.139Z,0.00
2017-11-24T05:34:57.120Z,0.00
2017-11-24T05:35:57.098Z,0.00
2017-11-24T05:36:57.080Z,0.00
2017-11-24T05:37:57.058Z,0.00
2017-11-24T05:38:57.041Z,0.00
2017-11-24T05:39:57.016Z,0.00
2017-11-24T05:40:56.994Z,0.00
2017-11-24T05:41:56.979Z,0.00
2017-11-24T05:42:56.951Z,0.00
2017-11-24T05:43:56.932Z,0.00
2017-11-24T05:44:56.911Z,0.00
2017-11-24T05:45:56.892Z,0.00
2017-11-24T05:46:56.870Z,0.00
2017-11-24T05:47:56.865Z,0.00
2017-11-24T05:48:56.827Z,0.00
2017-11-24T05:49:56.810Z,0.00
2017-11-24T05:50:56.785Z,0.00
2017-11-24T05:51:56.764Z,0.00
2017-11-24T05:52:56.742Z,0.00
2017-11-24T05:53:56.722Z,0.00
2017-11-24T05:54:56.709Z,0.00
2017-11-24T05:55:56.682Z,0.00
2017-11-24T05:56:56.664Z,0.00
2017-11-24T05:57:56.642Z,0.00
2017-11-24T05:58:56.627Z,0.00
2017-11-24T05:59:56.598Z,0.00
2017-11-24T06:00:56.601Z,0.00
2017-11-24T06:01:56.581Z,0.00
2017-11-24T06:02:56.534Z,0.00
2017-11-24T06:03:56.556Z,0.00
2017-11-24T06:04:56.495Z,0.00
2017-11-24T06:05:56.472Z,0.00
2017-11-24T06:06:56.454Z,0.00
2017-11-24T06:07:56.432Z,0.00
2017-11-24T06:08:56.414Z,0.00
2017-11-24T06:09:56.387Z,0.00
2017-11-24T06:10:56.369Z,0.00
2017-11-24T06:11:56.354Z,0.00
2017-11-24T06:12:56.326Z,0.00
2017-11-24T06:13:56.308Z,0.00
2017-11-24T06:14:56.289Z,0.00
2017-11-24T06:15:56.266Z,0.00
2017-11-24T06:16:56.247Z,0.00
2017-11-24T06:17:56.233Z,0.00
2017-11-24T06:18:56.210Z,0.00
2017-11-24T06:19:56.186Z,4.00
2017-11-24T06:20:56.188Z,4.00
2017-11-24T06:21:56.140Z,0.00
2017-11-24T06:22:56.127Z,4.00
2017-11-24T06:23:56.100Z,4.00
2017-11-24T06:24:56.078Z,4.00
2017-11-24T06:25:56.062Z,4.00
2017-11-24T06:26:56.048Z,4.00
2017-11-24T06:27:56.051Z,8.00
2017-11-24T06:28:55.997Z,8.00
2017-11-24T06:29:55.976Z,8.00
2017-11-24T06:30:55.960Z,8.00
2017-11-24T06:31:55.929Z,12.00
2017-11-24T06:32:55.914Z,12.00
2017-11-24T06:33:55.891Z,12.00
2017-11-24T06:34:55.870Z,16.00
2017-11-24T06:35:55.852Z,16.00
2017-11-24T06:36:55.828Z,16.00
2017-11-24T06:37:55.810Z,20.00
2017-11-24T06:38:55.789Z,20.00
2017-11-24T06:39:55.763Z,20.00
2017-11-24T06:40:55.751Z,24.00
2017-11-24T06:41:55.723Z,24.00
2017-11-24T06:42:55.713Z,24.00
2017-11-24T06:43:55.682Z,24.00
2017-11-24T06:44:55.662Z,28.00
2017-11-24T06:45:55.647Z,28.00
2017-11-24T06:46:55.650Z,32.00
2017-11-24T06:47:55.654Z,36.00
2017-11-24T06:48:55.576Z,36.00
2017-11-24T06:49:55.559Z,44.00
2017-11-24T06:50:55.537Z,44.00
2017-11-24T06:51:55.534Z,48.00
2017-11-24T06:52:55.494Z,52.00
2017-11-24T06:53:55.473Z,56.00
2017-11-24T06:54:55.455Z,56.00
2017-11-24T06:55:55.434Z,56.00
2017-11-24T06:56:55.410Z,64.00
2017-11-24T06:57:55.391Z,68.00
2017-11-24T06:58:55.371Z,68.00
2017-11-24T06:59:55.350Z,76.00
2017-11-24T07:00:55.334Z,84.00
2017-11-24T07:01:55.303Z,96.00
2017-11-24T07:02:55.291Z,108.00
2017-11-24T07:03:55.264Z,124.00
2017-11-24T07:04:55.242Z,132.00
2017-11-24T07:05:55.226Z,152.00
2017-11-24T07:06:55.203Z,160.00
2017-11-24T07:07:55.185Z,184.00
2017-11-24T07:08:55.164Z,196.00
2017-11-24T07:09:55.142Z,240.00
2017-11-24T07:11:16.122Z,252.00
2017-11-24T07:11:55.103Z,284.00
2017-11-24T07:12:55.082Z,288.00
2017-11-24T07:13:55.063Z,284.00
2017-11-24T07:14:55.037Z,296.00
2017-11-24T07:15:55.016Z,284.00
2017-11-24T07:16:54.994Z,324.00
2017-11-24T07:17:54.976Z,284.00
2017-11-24T07:18:54.953Z,312.00
2017-11-24T07:19:54.938Z,352.00
2017-11-24T07:20:54.912Z,456.00
2017-11-24T07:21:54.889Z,472.00
2017-11-24T07:22:54.874Z,452.00
2017-11-24T07:23:54.848Z,500.00
2017-11-24T07:24:54.826Z,524.00
2017-11-24T07:25:54.808Z,560.00
2017-11-24T07:26:54.790Z,592.00
2017-11-24T07:27:54.767Z,616.00
2017-11-24T07:28:54.749Z,632.00
2017-11-24T07:29:54.756Z,636.00
2017-11-24T07:30:54.752Z,640.00
2017-11-24T07:31:54.681Z,628.00
2017-11-24T07:32:54.665Z,648.00
2017-11-24T07:33:54.644Z,672.00
2017-11-24T07:34:54.618Z,672.00
2017-11-24T07:35:54.604Z,680.00
2017-11-24T07:36:54.582Z,700.00
2017-11-24T07:37:54.569Z,728.00
2017-11-24T07:38:54.540Z,728.00
2017-11-24T07:39:54.518Z,728.00
2017-11-24T07:40:54.496Z,708.00
2017-11-24T07:42:09.194Z,692.00
2017-11-24T07:42:54.456Z,556.00
2017-11-24T07:43:54.436Z,644.00
2017-11-24T07:44:54.417Z,644.00
2017-11-24T07:45:54.399Z,536.00
2017-11-24T07:46:54.380Z,360.00
2017-11-24T07:47:54.353Z,312.00
2017-11-24T07:48:54.344Z,292.00
2017-11-24T07:49:54.312Z,256.00
2017-11-24T07:50:54.295Z,272.00
2017-11-24T07:51:54.271Z,332.00
2017-11-24T07:52:54.253Z,420.00
2017-11-24T07:53:54.238Z,524.00
2017-11-24T07:54:54.215Z,672.00
2017-11-24T07:55:54.197Z,608.00
2017-11-24T07:56:54.169Z,684.00
2017-11-24T07:57:54.157Z,748.00
2017-11-24T07:58:54.132Z,612.00
2017-11-24T07:59:54.108Z,744.00
2017-11-24T08:00:54.087Z,748.00
2017-11-24T08:01:54.066Z,692.00
2017-11-24T08:02:54.057Z,372.00
2017-11-24T08:03:54.025Z,1180.00
2017-11-24T08:04:54.005Z,592.00
2017-11-24T08:05:53.989Z,1288.00
2017-11-24T08:06:53.969Z,1304.00
2017-11-24T08:07:53.947Z,1356.00
2017-11-24T08:08:53.929Z,1376.00
2017-11-24T08:09:53.905Z,1308.00
2017-11-24T08:10:53.885Z,1556.00
2017-11-24T08:11:53.861Z,1580.00
2017-11-24T08:12:53.851Z,1428.00
2017-11-24T08:13:53.869Z,768.00
2017-11-24T08:14:53.858Z,552.00
2017-11-24T08:15:53.782Z,464.00
2017-11-24T08:16:53.761Z,376.00
2017-11-24T08:17:53.741Z,392.00
2017-11-24T08:18:53.724Z,352.00
2017-11-24T08:19:53.703Z,312.00
2017-11-24T08:20:53.679Z,260.00
2017-11-24T08:21:53.662Z,288.00
2017-11-24T08:22:53.643Z,320.00
2017-11-24T08:23:53.624Z,300.00
2017-11-24T08:24:53.599Z,296.00
2017-11-24T08:25:53.582Z,216.00
2017-11-24T08:26:53.559Z,184.00
2017-11-24T08:27:53.542Z,152.00
2017-11-24T08:28:53.519Z,148.00
2017-11-24T08:29:53.497Z,140.00
2017-11-24T08:30:53.476Z,156.00
2017-11-24T08:31:53.458Z,168.00
2017-11-24T08:32:53.439Z,196.00
2017-11-24T08:33:53.415Z,188.00
2017-11-24T08:34:53.396Z,164.00
2017-11-24T08:35:53.374Z,136.00
2017-11-24T08:36:53.354Z,124.00
2017-11-24T08:37:53.332Z,128.00
2017-11-24T08:38:53.312Z,132.00
2017-11-24T08:39:53.299Z,148.00
2017-11-24T08:40:53.271Z,184.00
2017-11-24T08:41:53.254Z,280.00
2017-11-24T08:42:53.230Z,444.00
2017-11-24T08:43:53.220Z,496.00
2017-11-24T08:44:53.200Z,1536.00
2017-11-24T08:45:53.172Z,732.00
2017-11-24T08:46:53.156Z,1028.00
2017-11-24T08:47:53.130Z,1076.00
2017-11-24T08:48:53.114Z,1276.00
2017-11-24T08:49:53.099Z,2164.00
2017-11-24T08:50:53.074Z,1244.00
2017-11-24T08:51:53.047Z,784.00
2017-11-24T08:52:53.029Z,392.00
2017-11-24T08:53:53.009Z,188.00
2017-11-24T08:54:52.985Z,152.00
2017-11-24T08:55:52.972Z,132.00
2017-11-24T08:56:52.991Z,212.00
2017-11-24T08:57:52.953Z,268.00
2017-11-24T08:58:52.965Z,296.00
2017-11-24T08:59:52.883Z,268.00
2017-11-24T09:00:52.872Z,400.00
2017-11-24T09:01:52.844Z,528.00
2017-11-24T09:02:52.825Z,640.00
2017-11-24T09:03:52.804Z,792.00
2017-11-24T09:04:52.784Z,1476.00
2017-11-24T09:05:52.763Z,1328.00
2017-11-24T09:06:52.743Z,972.00
2017-11-24T09:07:52.720Z,508.00
2017-11-24T09:08:52.700Z,376.00
2017-11-24T09:09:52.685Z,452.00
2017-11-24T09:10:52.658Z,348.00
2017-11-24T09:11:52.639Z,448.00
2017-11-24T09:12:52.624Z,436.00
2017-11-24T09:13:52.599Z,276.00
2017-11-24T09:14:52.578Z,316.00
2017-11-24T09:15:52.557Z,340.00
2017-11-24T09:16:52.538Z,412.00
2017-11-24T09:17:52.517Z,496.00
2017-11-24T09:18:52.498Z,748.00
2017-11-24T09:19:52.477Z,772.00
2017-11-24T09:20:52.461Z,796.00
2017-11-24T09:21:52.440Z,840.00
2017-11-24T09:22:52.427Z,1056.00
2017-11-24T09:23:52.395Z,688.00
2017-11-24T09:24:52.374Z,424.00
2017-11-24T09:25:52.361Z,420.00
2017-11-24T09:26:52.341Z,504.00
2017-11-24T09:27:52.313Z,436.00
2017-11-24T09:28:52.291Z,440.00
2017-11-24T09:29:52.277Z,436.00
2017-11-24T09:30:52.254Z,392.00
2017-11-24T09:31:52.231Z,456.00
2017-11-24T09:32:52.212Z,424.00
2017-11-24T09:33:52.192Z,400.00
2017-11-24T09:34:52.172Z,440.00
2017-11-24T09:35:52.151Z,468.00
2017-11-24T09:36:52.128Z,360.00
2017-11-24T09:37:52.111Z,332.00
2017-11-24T09:38:52.092Z,336.00
2017-11-24T09:39:52.074Z,340.00
2017-11-24T09:40:52.049Z,356.00
2017-11-24T09:41:52.072Z,488.00
2017-11-24T09:43:06.729Z,688.00
2017-11-24T09:43:51.986Z,780.00
2017-11-24T09:44:51.972Z,840.00
2017-11-24T09:45:51.953Z,844.00
2017-11-24T09:46:51.926Z,920.00
2017-11-24T09:47:51.909Z,1216.00
2017-11-24T09:48:51.898Z,1240.00
2017-11-24T09:49:51.865Z,1364.00
2017-11-24T09:50:51.844Z,2588.00
2017-11-24T09:51:51.823Z,1924.00
2017-11-24T09:52:51.810Z,2348.00
2017-11-24T09:53:51.785Z,1252.00
2017-11-24T09:54:51.769Z,1740.00
2017-11-24T09:55:51.745Z,1920.00
2017-11-24T09:56:51.724Z,1176.00
2017-11-24T09:57:51.701Z,1048.00
2017-11-24T09:58:51.681Z,1000.00
2017-11-24T09:59:51.666Z,1224.00
2017-11-24T10:00:51.642Z,1492.00
2017-11-24T10:01:51.623Z,1696.00
2017-11-24T10:02:51.600Z,1852.00
2017-11-24T10:03:51.595Z,2512.00
2017-11-24T10:04:51.562Z,2184.00
2017-11-24T10:05:51.541Z,2248.00
2017-11-24T10:06:51.519Z,2812.00
2017-11-24T10:07:51.503Z,2996.00
2017-11-24T10:08:51.479Z,2328.00
2017-11-24T10:09:51.460Z,1552.00
2017-11-24T10:10:51.444Z,1380.00
2017-11-24T10:11:51.419Z,1412.00
2017-11-24T10:12:51.403Z,1212.00
2017-11-24T10:13:51.386Z,1692.00
2017-11-24T10:14:51.369Z,2292.00
2017-11-24T10:15:51.351Z,2752.00
2017-11-24T10:16:51.337Z,2732.00
2017-11-24T10:17:51.299Z,2692.00
2017-11-24T10:18:51.293Z,2576.00
2017-11-24T10:19:51.257Z,2852.00
2017-11-24T10:20:51.238Z,2764.00
2017-11-24T10:21:51.219Z,2632.00
2017-11-24T10:22:51.221Z,2296.00
2017-11-24T10:23:51.178Z,2544.00
2017-11-24T10:24:51.159Z,1908.00
2017-11-24T10:25:51.143Z,1888.00
2017-11-24T10:26:51.163Z,1328.00
2017-11-24T10:27:51.101Z,944.00
2017-11-24T10:28:51.082Z,700.00
2017-11-24T10:29:51.061Z,688.00
2017-11-24T10:30:51.042Z,764.00
2017-11-24T10:31:51.038Z,2116.00
2017-11-24T10:32:51.016Z,800.00
2017-11-24T10:33:50.987Z,520.00
2017-11-24T10:34:50.969Z,448.00
2017-11-24T10:35:50.949Z,416.00
2017-11-24T10:36:50.920Z,452.00
2017-11-24T10:37:50.913Z,492.00
2017-11-24T10:38:50.883Z,492.00
2017-11-24T10:39:50.862Z,616.00
2017-11-24T10:40:50.844Z,688.00
2017-11-24T10:41:50.840Z,672.00
2017-11-24T10:42:50.803Z,832.00
2017-11-24T10:43:50.783Z,648.00
2017-11-24T10:44:50.764Z,696.00
2017-11-24T10:45:50.762Z,780.00
2017-11-24T10:46:50.725Z,864.00
2017-11-24T10:47:50.706Z,1176.00
2017-11-24T10:48:50.689Z,2052.00
2017-11-24T10:49:50.664Z,1924.00
2017-11-24T10:50:50.660Z,1736.00
2017-11-24T10:51:50.622Z,1648.00
2017-11-24T10:52:50.613Z,2060.00
2017-11-24T10:53:50.583Z,1832.00
2017-11-24T10:54:50.563Z,1592.00
2017-11-24T10:55:50.538Z,1600.00
2017-11-24T10:56:50.536Z,2020.00
2017-11-24T10:57:50.504Z,2144.00
2017-11-24T10:58:50.490Z,2148.00
2017-11-24T10:59:50.466Z,1732.00
2017-11-24T11:00:50.462Z,1344.00
2017-11-24T11:01:50.424Z,1232.00
2017-11-24T11:02:50.405Z,1260.00
2017-11-24T11:03:50.381Z,1136.00
2017-11-24T11:04:50.376Z,1180.00
2017-11-24T11:05:50.351Z,1132.00
2017-11-24T11:06:50.326Z,1132.00
2017-11-24T11:07:50.304Z,1180.00
2017-11-24T11:08:50.282Z,1112.00
2017-11-24T11:09:50.266Z,1144.00
2017-11-24T11:10:50.245Z,1160.00
2017-11-24T11:11:50.272Z,1128.00
2017-11-24T11:12:50.205Z,1272.00
2017-11-24T11:13:50.190Z,1776.00
2017-11-24T11:14:50.174Z,2040.00
2017-11-24T11:15:50.148Z,2320.00
2017-11-24T11:16:50.127Z,2524.00
2017-11-24T11:17:50.109Z,2552.00
2017-11-24T11:18:50.091Z,2708.00
2017-11-24T11:19:50.069Z,2084.00
2017-11-24T11:20:50.056Z,1892.00
2017-11-24T11:21:50.034Z,1976.00
2017-11-24T11:22:50.007Z,1972.00
2017-11-24T11:23:49.998Z,1416.00
2017-11-24T11:24:49.976Z,1376.00
2017-11-24T11:25:49.946Z,1636.00
2017-11-24T11:26:49.930Z,1636.00
2017-11-24T11:27:49.916Z,1668.00
2017-11-24T11:28:49.889Z,1840.00
2017-11-24T11:29:49.878Z,1600.00
2017-11-24T11:30:49.851Z,1392.00
2017-11-24T11:31:49.838Z,1452.00
2017-11-24T11:32:49.816Z,1504.00
2017-11-24T11:33:49.790Z,1412.00
2017-11-24T11:34:49.771Z,1476.00
2017-11-24T11:35:49.751Z,1492.00
2017-11-24T11:36:49.734Z,1144.00
2017-11-24T11:37:49.710Z,1160.00
2017-11-24T11:38:49.693Z,1376.00
2017-11-24T11:39:49.678Z,1376.00
2017-11-24T11:40:49.655Z,1540.00
2017-11-24T11:41:49.631Z,1652.00
2017-11-24T11:42:49.616Z,1460.00
2017-11-24T11:43:49.595Z,1772.00
2017-11-24T11:44:49.574Z,1800.00
2017-11-24T11:45:49.558Z,1768.00
2017-11-24T11:46:49.557Z,1608.00
2017-11-24T11:47:49.517Z,1812.00
2017-11-24T11:48:49.501Z,1812.00
2017-11-24T11:49:49.486Z,1732.00
2017-11-24T11:50:49.459Z,1652.00
2017-11-24T11:51:49.443Z,1552.00
2017-11-24T11:52:49.416Z,1500.00
2017-11-24T11:53:49.399Z,1564.00
2017-11-24T11:54:49.385Z,1528.00
2017-11-24T11:55:49.360Z,1436.00
2017-11-24T11:56:49.375Z,1508.00
2017-11-24T11:57:49.452Z,1284.00
2017-11-24T11:58:49.312Z,1276.00
2017-11-24T11:59:49.284Z,1124.00
2017-11-24T12:00:49.268Z,832.00
2017-11-24T12:01:49.249Z,668.00
2017-11-24T12:02:49.236Z,700.00
2017-11-24T12:03:49.211Z,820.00
2017-11-24T12:04:49.189Z,504.00
2017-11-24T12:05:49.166Z,428.00
2017-11-24T12:06:49.166Z,460.00
2017-11-24T12:07:49.129Z,456.00
2017-11-24T12:08:49.107Z,428.00
2017-11-24T12:09:49.091Z,340.00
2017-11-24T12:10:49.083Z,288.00
2017-11-24T12:11:49.049Z,552.00
2017-11-24T12:12:49.034Z,532.00
2017-11-24T12:14:03.770Z,480.00
2017-11-24T12:14:48.993Z,444.00
2017-11-24T12:15:48.972Z,364.00
2017-11-24T12:16:49.005Z,468.00
2017-11-24T12:17:48.935Z,432.00
2017-11-24T12:18:48.915Z,760.00
2017-11-24T12:19:48.893Z,728.00
2017-11-24T12:20:48.878Z,524.00
2017-11-24T12:21:48.864Z,748.00
2017-11-24T12:22:48.839Z,768.00
2017-11-24T12:23:48.816Z,720.00
2017-11-24T12:24:48.799Z,760.00
2017-11-24T12:25:48.775Z,704.00
2017-11-24T12:26:48.762Z,712.00
2017-11-24T12:27:48.740Z,768.00
2017-11-24T12:28:48.721Z,1000.00
2017-11-24T12:29:48.704Z,992.00
2017-11-24T12:30:48.687Z,1116.00
2017-11-24T12:31:48.660Z,1116.00
2017-11-24T12:32:48.641Z,1108.00
2017-11-24T12:33:48.628Z,1208.00
2017-11-24T12:34:48.601Z,1136.00
2017-11-24T12:35:48.586Z,952.00
2017-11-24T12:36:48.568Z,916.00
2017-11-24T12:37:48.544Z,880.00
2017-11-24T12:38:48.527Z,868.00
2017-11-24T12:39:48.511Z,808.00
2017-11-24T12:40:48.487Z,796.00
2017-11-24T12:41:48.468Z,740.00
2017-11-24T12:42:48.449Z,680.00
2017-11-24T12:43:48.476Z,556.00
2017-11-24T12:44:48.411Z,552.00
2017-11-24T12:45:48.394Z,448.00
2017-11-24T12:46:48.374Z,516.00
2017-11-24T12:47:48.352Z,540.00
2017-11-24T12:48:48.336Z,608.00